Oban — PDWJ — position and weather

sailwx.info

Track history (hours):
 
Tides and Currents Weather Stations Pressure Air Temp Water Temp Dewpoint Dewpoint Depression Visibility Wind Speed Wind Dir Waves Ship Positions

Oban

Last reported at 2019-Apr-25 12:00 UTC. Time now 2019-Apr-25 12:30 UTC.
Position N 54°08' E 009°20'.

Length 39 m; draft 2.8 m.

Type: Sailing vessel. MMSI: 246085000.

Date/timePositionNaut miles runAvg speedWind from/ knotsBaromVisibWave heightAir tempDewpointWater temp
2019-Apr-25 12:00N 54°08' E 009°20'3 6.8
2019-Apr-25 11:30N 54°04' E 009°19'3 6.9
2019-Apr-25 11:00N 54°01' E 009°18'10 5.2
2019-Apr-25 09:09N 53°53' E 009°08'1 3.0
2019-Apr-25 08:55N 53°53' E 009°07'2 4.3
2019-Apr-25 08:30N 53°52' E 009°04'2 5.0
2019-Apr-25 08:00N 53°51' E 009°00'2 4.7
2019-Apr-25 07:30N 53°51' E 008°57'4 5.6
2019-Apr-25 06:52N 53°50' E 008°50'2 5.7
2019-Apr-25 06:30N 53°50' E 008°47'3 5.3
2019-Apr-25 06:00N 53°52' E 008°43'3 6.0
2019-Apr-25 05:30N 53°54' E 008°41'3 5.9
2019-Apr-25 05:00N 53°57' E 008°38'8 7.2
2019-Apr-25 03:57N 53°59' E 008°25'3 7.4
2019-Apr-25 03:30N 53°59' E 008°20'10 8.1
2019-Apr-25 02:13N 53°58' E 008°02'6 8.5
2019-Apr-25 01:34N 53°56' E 007°53'1 8.5
2019-Apr-25 01:27N 53°56' E 007°52'6 8.1
2019-Apr-25 00:46N 53°54' E 007°43'93 6.9
2019-Apr-24 11:15N 53°26' E 005°13'4 8.1
2019-Apr-24 10:46N 53°25' E 005°07'2 6.2
2019-Apr-24 10:23N 53°23' E 005°03'3 8.2
2019-Apr-24 09:58N 53°21' E 004°59'3 5.8
2019-Apr-24 09:30N 53°19' E 005°01'3 5.8
2019-Apr-24 09:00N 53°19' E 005°06'3 5.8
2019-Apr-24 08:30N 53°18' E 005°11'3 5.5
2019-Apr-24 08:00N 53°16' E 005°10'2 4.8
2019-Apr-24 07:30N 53°14' E 005°12'3 5.9
2019-Apr-24 07:00N 53°13' E 005°17'3 6.6
2019-Apr-24 06:30N 53°11' E 005°21'2 4.2
2019-Apr-24 06:00N 53°10' E 005°25'0 0.0
2019-Apr-24 05:30N 53°10' E 005°25'0 0.0
2019-Apr-24 05:00N 53°10' E 005°25'0 0.0
2019-Apr-24 04:30N 53°10' E 005°25'0 0.0
2019-Apr-24 04:00N 53°10' E 005°25'0 0.0
2019-Apr-24 03:30N 53°10' E 005°25'0 0.0
2019-Apr-24 03:00N 53°10' E 005°25'0 0.0
2019-Apr-24 02:30N 53°10' E 005°25'0 0.0
2019-Apr-24 02:00N 53°10' E 005°25'0 0.0
2019-Apr-24 01:30N 53°10' E 005°25'0 0.0
2019-Apr-24 01:00N 53°10' E 005°25'0 0.0
2019-Apr-24 00:30N 53°10' E 005°25'0 0.0
2019-Apr-24 00:00N 53°10' E 005°25'0 0.0
2019-Apr-23 23:30N 53°10' E 005°25'0 0.0
2019-Apr-23 23:00N 53°10' E 005°25'0 0.0
2019-Apr-23 22:30N 53°10' E 005°25'0 0.0
2019-Apr-23 22:00N 53°10' E 005°25'0 0.0
2019-Apr-23 21:30N 53°10' E 005°25'0 0.2
2019-Apr-23 21:00N 53°10' E 005°25'2 3.3
2019-Apr-23 20:30N 53°09' E 005°23'3 5.6
2019-Apr-23 20:00N 53°06' E 005°22'2 4.8
2019-Apr-23 19:30N 53°04' E 005°20'0 0.4
2019-Apr-23 19:00N 53°04' E 005°20'0 0.0
2019-Apr-23 18:30N 53°04' E 005°20'0 0.0
2019-Apr-23 18:00N 53°04' E 005°20'0 0.8
2019-Apr-23 17:30N 53°04' E 005°21'2 4.4
2019-Apr-23 17:00N 53°02' E 005°21'3 6.9
2019-Apr-23 16:30N 52°58' E 005°19'4 8.3
2019-Apr-23 16:00N 52°54' E 005°19'4 8.0
2019-Apr-23 15:30N 52°50' E 005°19'3 5.4
2019-Apr-23 15:00N 52°47' E 005°20'3 5.1
2019-Apr-23 14:30N 52°45' E 005°22'3 6.4
2019-Apr-23 14:00N 52°43' E 005°26'3 6.3
2019-Apr-23 13:30N 52°41' E 005°30'3 6.7
2019-Apr-23 13:00N 52°39' E 005°34'3 6.4
2019-Apr-23 12:30N 52°37' E 005°38'1 1.1
2019-Apr-23 12:00N 52°37' E 005°39'2 3.1
2019-Apr-23 11:30N 52°36' E 005°41'2 4.9
2019-Apr-23 11:00N 52°35' E 005°45'3 5.5
2019-Apr-23 10:30N 52°35' E 005°49'3 6.3
2019-Apr-23 10:00N 52°34' E 005°54'0 0.5
2019-Apr-23 09:30N 52°34' E 005°55'0 0.0
2019-Apr-23 09:00N 52°34' E 005°55'0 0.0
2019-Apr-23 08:30N 52°34' E 005°55'0 0.0
2019-Apr-23 08:00N 52°34' E 005°55'0 0.0
2019-Apr-23 07:30N 52°34' E 005°55'0 0.0
2019-Apr-23 07:00N 52°34' E 005°55'0 0.0
2019-Apr-23 06:30N 52°34' E 005°55'0 0.0
2019-Apr-23 06:00N 52°34' E 005°55'0 0.0
2019-Apr-23 05:30N 52°34' E 005°55'0 0.0
2019-Apr-23 05:00N 52°34' E 005°55'0 0.0
2019-Apr-23 04:30N 52°34' E 005°55'0 0.0
2019-Apr-23 04:00N 52°34' E 005°55'0 0.0
2019-Apr-23 03:30N 52°34' E 005°55'0 0.0
2019-Apr-23 03:00N 52°34' E 005°55'0 0.0
2019-Apr-23 02:30N 52°34' E 005°55'0 0.0
2019-Apr-23 02:00N 52°34' E 005°55'0 0.0
2019-Apr-23 01:30N 52°34' E 005°55'0 0.0
2019-Apr-23 01:00N 52°34' E 005°55'0 0.0
2019-Apr-23 00:30N 52°34' E 005°55'0 0.0
2019-Apr-23 00:00N 52°34' E 005°55'0 0.0
2019-Apr-22 23:30N 52°34' E 005°55'0 0.0
2019-Apr-22 23:00N 52°34' E 005°55'0 0.0
2019-Apr-22 22:30N 52°34' E 005°55'0 0.0
2019-Apr-22 22:00N 52°34' E 005°55'0 0.0
2019-Apr-22 21:30N 52°34' E 005°55'0 0.0
2019-Apr-22 21:00N 52°34' E 005°55'0 0.0
2019-Apr-22 20:30N 52°34' E 005°55'0 0.0
2019-Apr-22 20:00N 52°34' E 005°55'0 0.0
2019-Apr-22 19:30N 52°34' E 005°55'0 0.0
2019-Apr-22 19:00N 52°34' E 005°55'0 0.0
2019-Apr-22 18:30N 52°34' E 005°55'0 0.0
2019-Apr-22 18:00N 52°34' E 005°55'0 0.0
2019-Apr-22 17:30N 52°34' E 005°55'0 0.0
2019-Apr-22 17:00N 52°34' E 005°55'0 0.0
2019-Apr-22 16:30N 52°34' E 005°55'0 0.0
2019-Apr-22 16:00N 52°34' E 005°55'0 0.0
2019-Apr-22 15:30N 52°34' E 005°55'0 0.0
2019-Apr-22 15:00N 52°34' E 005°55'0 0.0
2019-Apr-22 14:30N 52°34' E 005°55'0 0.0
2019-Apr-22 14:00N 52°34' E 005°55'0 0.0
2019-Apr-22 13:30N 52°34' E 005°55'0 0.0
2019-Apr-22 13:00N 52°34' E 005°55'0 0.0
2019-Apr-22 12:30N 52°34' E 005°55'0 0.0
2019-Apr-22 12:00N 52°34' E 005°55'0 0.0
2019-Apr-22 11:30N 52°34' E 005°55'0 0.0
2019-Apr-22 11:00N 52°34' E 005°55'0 0.0
2019-Apr-22 10:30N 52°34' E 005°55'0 0.0
2019-Apr-22 10:00N 52°34' E 005°55'0 0.0
2019-Apr-22 09:30N 52°34' E 005°55'0 0.0
2019-Apr-22 09:00N 52°34' E 005°55'0 0.0
2019-Apr-22 08:30N 52°34' E 005°55'0 0.0
2019-Apr-22 08:00N 52°34' E 005°55'0 0.0
2019-Apr-22 07:30N 52°34' E 005°55'0 0.0
2019-Apr-22 07:00N 52°34' E 005°55'0 0.0
2019-Apr-22 06:30N 52°34' E 005°55'0 0.0
2019-Apr-22 06:00N 52°34' E 005°55'0 0.0
2019-Apr-22 05:30N 52°34' E 005°55'0 0.0
2019-Apr-22 05:00N 52°34' E 005°55'0 0.0
2019-Apr-22 04:30N 52°34' E 005°55'0 0.0
2019-Apr-22 04:00N 52°34' E 005°55'0 0.0
2019-Apr-22 03:30N 52°34' E 005°55'0 0.0
2019-Apr-22 03:00N 52°34' E 005°55'0 0.0
2019-Apr-22 02:30N 52°34' E 005°55'0 0.0
2019-Apr-22 02:00N 52°34' E 005°55'0 0.0
2019-Apr-22 01:30N 52°34' E 005°55'0 0.0
2019-Apr-22 01:00N 52°34' E 005°55'0 0.0
2019-Apr-22 00:30N 52°34' E 005°55'0 0.0
2019-Apr-22 00:00N 52°34' E 005°55'0 0.0
2019-Apr-21 23:30N 52°34' E 005°55'0 0.0
2019-Apr-21 23:00N 52°34' E 005°55'0 0.0
2019-Apr-21 22:30N 52°34' E 005°55'0 0.0
2019-Apr-21 22:00N 52°34' E 005°55'0 0.0
2019-Apr-21 21:30N 52°34' E 005°55'0 0.0
2019-Apr-21 21:00N 52°34' E 005°55'0 0.0
2019-Apr-21 20:30N 52°34' E 005°55'0 0.0
2019-Apr-21 20:00N 52°34' E 005°55'0 0.0
2019-Apr-21 19:30N 52°34' E 005°55'0 0.0
2019-Apr-21 19:00N 52°34' E 005°55'0 0.0
2019-Apr-21 18:30N 52°34' E 005°55'0 0.0
2019-Apr-21 18:00N 52°34' E 005°55'0 0.0
2019-Apr-21 17:30N 52°34' E 005°55'0 0.0
2019-Apr-21 17:00N 52°34' E 005°55'0 0.0
2019-Apr-21 16:30N 52°34' E 005°55'0 0.0
2019-Apr-21 16:00N 52°34' E 005°55'0 0.0
2019-Apr-21 15:30N 52°34' E 005°55'0 0.0
2019-Apr-21 15:00N 52°34' E 005°55'0 0.0
2019-Apr-21 14:30N 52°34' E 005°55'0 0.0
2019-Apr-21 14:00N 52°34' E 005°55'0 0.0
2019-Apr-21 13:30N 52°34' E 005°55'0 0.0
2019-Apr-21 13:00N 52°34' E 005°55'0 0.0
2019-Apr-21 12:30N 52°34' E 005°55'0 0.0
2019-Apr-21 12:00N 52°34' E 005°55'0 0.0
2019-Apr-21 11:30N 52°34' E 005°55'0 0.0
2019-Apr-21 11:00N 52°34' E 005°55'0 0.0
2019-Apr-21 10:30N 52°34' E 005°55'0 0.0
2019-Apr-21 10:00N 52°34' E 005°55'0 0.0
2019-Apr-21 09:30N 52°34' E 005°55'0 0.0
2019-Apr-21 09:00N 52°34' E 005°55'0 0.0
2019-Apr-21 08:30N 52°34' E 005°55'0 0.0
2019-Apr-21 08:00N 52°34' E 005°55'0 0.0
2019-Apr-21 07:30N 52°34' E 005°55'0 0.0
2019-Apr-21 07:00N 52°34' E 005°55'0 0.0
2019-Apr-21 06:30N 52°34' E 005°55'0 0.0
2019-Apr-21 06:00N 52°34' E 005°55'0 0.0
2019-Apr-21 05:30N 52°34' E 005°55'0 0.0
2019-Apr-21 05:00N 52°34' E 005°55'0 0.0
2019-Apr-21 04:30N 52°34' E 005°55'0 0.0
2019-Apr-21 04:00N 52°34' E 005°55'0 0.0
2019-Apr-21 03:30N 52°34' E 005°55'0 0.0
2019-Apr-21 03:00N 52°34' E 005°55'0 0.0
2019-Apr-21 02:30N 52°34' E 005°55'0 0.0
2019-Apr-21 02:00N 52°34' E 005°55'0 0.0
2019-Apr-21 01:30N 52°34' E 005°55'0 0.0
2019-Apr-21 01:00N 52°34' E 005°55'0 0.0
2019-Apr-21 00:30N 52°34' E 005°55'0 0.0
2019-Apr-21 00:00N 52°34' E 005°55'0 0.0
2019-Apr-20 23:30N 52°34' E 005°55'0 0.0
2019-Apr-20 23:00N 52°34' E 005°55'0 0.0
2019-Apr-20 22:30N 52°34' E 005°55'0 0.0
2019-Apr-20 22:00N 52°34' E 005°55'0 0.0
2019-Apr-20 21:30N 52°34' E 005°55'0 0.0
2019-Apr-20 21:00N 52°34' E 005°55'0 0.0
2019-Apr-20 20:30N 52°34' E 005°55'0 0.0
2019-Apr-20 20:00N 52°34' E 005°55'0 0.0
2019-Apr-20 19:30N 52°34' E 005°55'0 0.0
2019-Apr-20 19:00N 52°34' E 005°55'0 0.0
2019-Apr-20 18:30N 52°34' E 005°55'0 0.0
2019-Apr-20 18:00N 52°34' E 005°55'0 0.0
2019-Apr-20 17:30N 52°34' E 005°55'0 0.0
2019-Apr-20 17:00N 52°34' E 005°55'0 0.0
2019-Apr-20 16:30N 52°34' E 005°55'0 0.0
2019-Apr-20 16:00N 52°34' E 005°55'0 0.0
2019-Apr-20 15:30N 52°34' E 005°55'0 0.0
2019-Apr-20 15:00N 52°34' E 005°55'0 0.0
2019-Apr-20 14:30N 52°34' E 005°55'0 0.0
2019-Apr-20 14:00N 52°34' E 005°55'0 0.0
2019-Apr-20 13:30N 52°34' E 005°55'0 0.0
2019-Apr-20 13:00N 52°34' E 005°55'0 0.0
2019-Apr-20 12:30N 52°34' E 005°55'0 0.0
2019-Apr-20 12:00N 52°34' E 005°55'0 0.0
2019-Apr-20 11:30N 52°34' E 005°55'0 0.0
2019-Apr-20 11:00N 52°34' E 005°55'0 0.0
2019-Apr-20 10:30N 52°34' E 005°55'0 0.0
2019-Apr-20 10:00N 52°34' E 005°55'0 0.0
2019-Apr-20 09:30N 52°34' E 005°55'0 0.0
2019-Apr-20 09:00N 52°34' E 005°55'0 0.0
2019-Apr-20 08:30N 52°34' E 005°55'0 0.0
2019-Apr-20 08:00N 52°34' E 005°55'0 0.0
2019-Apr-20 07:30N 52°34' E 005°55'0 0.0
2019-Apr-20 07:00N 52°34' E 005°55'0 0.0
2019-Apr-20 06:30N 52°34' E 005°55'0 0.4
2019-Apr-20 06:00N 52°34' E 005°55'0 0.0
2019-Apr-20 05:30N 52°34' E 005°55'0 0.0
2019-Apr-20 05:00N 52°34' E 005°55'0 0.0
2019-Apr-20 04:30N 52°34' E 005°55'0 0.0
2019-Apr-20 04:00N 52°34' E 005°55'0 0.0
2019-Apr-20 03:30N 52°34' E 005°55'0 0.0
2019-Apr-20 03:00N 52°34' E 005°55'0 0.0
2019-Apr-20 02:30N 52°34' E 005°55'0 0.0
2019-Apr-20 02:00N 52°34' E 005°55'0 0.0
2019-Apr-20 01:30N 52°34' E 005°55'0 0.0
2019-Apr-20 01:00N 52°34' E 005°55'0 0.0
2019-Apr-20 00:30N 52°34' E 005°55'0 0.0
2019-Apr-20 00:00N 52°34' E 005°55'0 0.0
2019-Apr-19 23:30N 52°34' E 005°55'0 0.0
2019-Apr-19 23:00N 52°34' E 005°55'0 0.0
2019-Apr-19 22:30N 52°34' E 005°55'0 0.0
2019-Apr-19 22:00N 52°34' E 005°55'0 0.0
2019-Apr-19 21:30N 52°34' E 005°55'0 0.0
2019-Apr-19 21:00N 52°34' E 005°55'0 0.0
2019-Apr-19 20:30N 52°34' E 005°55'0 0.0
2019-Apr-19 20:00N 52°34' E 005°55'0 0.0
2019-Apr-19 19:30N 52°34' E 005°55'0 0.0
2019-Apr-19 19:00N 52°34' E 005°55'0 0.0
2019-Apr-19 18:30N 52°34' E 005°55'0 0.0
2019-Apr-19 18:00N 52°34' E 005°55'0 0.0
2019-Apr-19 17:30N 52°34' E 005°55'0 0.0
2019-Apr-19 17:00N 52°34' E 005°55'0 0.0
2019-Apr-19 16:30N 52°34' E 005°55'0 0.0
2019-Apr-19 16:00N 52°34' E 005°55'0 0.0
2019-Apr-19 15:30N 52°34' E 005°55'0 0.0
2019-Apr-19 15:00N 52°34' E 005°55'0 0.0
2019-Apr-19 14:30N 52°34' E 005°55'0 0.0
2019-Apr-19 14:00N 52°34' E 005°55'0 0.0
2019-Apr-19 13:30N 52°34' E 005°55'0 0.0
2019-Apr-19 13:00N 52°34' E 005°55'0 0.0
2019-Apr-19 12:30N 52°34' E 005°55'0 0.0
2019-Apr-19 12:00N 52°34' E 005°55'0 0.0
2019-Apr-19 11:30N 52°34' E 005°55'0 0.0
2019-Apr-19 11:00N 52°34' E 005°55'0 0.0
2019-Apr-19 10:30N 52°34' E 005°55'0 0.0
2019-Apr-19 10:00N 52°34' E 005°55'0 0.0
2019-Apr-19 09:30N 52°34' E 005°55'0 0.0
2019-Apr-19 09:00N 52°34' E 005°55'0 0.0
2019-Apr-19 08:30N 52°34' E 005°55'0 0.0
2019-Apr-19 08:00N 52°34' E 005°55'0 0.0
2019-Apr-19 07:30N 52°34' E 005°55'0 0.0
2019-Apr-19 07:00N 52°34' E 005°55'0 0.0
2019-Apr-19 06:30N 52°34' E 005°55'0 0.0
2019-Apr-19 06:00N 52°34' E 005°55'0 0.0
2019-Apr-19 05:30N 52°34' E 005°55'0 0.0
2019-Apr-19 05:00N 52°34' E 005°55'0 0.0
2019-Apr-19 04:30N 52°34' E 005°55'0 0.0
2019-Apr-19 04:00N 52°34' E 005°55'0 0.0
2019-Apr-19 03:30N 52°34' E 005°55'0 0.0
2019-Apr-19 03:00N 52°34' E 005°55'0 0.0
2019-Apr-19 02:30N 52°34' E 005°55'0 0.0
2019-Apr-19 02:00N 52°34' E 005°55'0 0.0
2019-Apr-19 01:30N 52°34' E 005°55'0 0.0
2019-Apr-19 01:00N 52°34' E 005°55'0 0.0
2019-Apr-19 00:30N 52°34' E 005°55'0 0.0
2019-Apr-19 00:00N 52°34' E 005°55'0 0.0
2019-Apr-18 23:30N 52°34' E 005°55'0 0.0
2019-Apr-18 23:00N 52°34' E 005°55'0 0.0
2019-Apr-18 22:30N 52°34' E 005°55'0 0.0
2019-Apr-18 22:00N 52°34' E 005°55'0 0.0
2019-Apr-18 21:30N 52°34' E 005°55'0 0.0
2019-Apr-18 21:00N 52°34' E 005°55'0 0.0
2019-Apr-18 20:30N 52°34' E 005°55'0 0.0
2019-Apr-18 20:00N 52°34' E 005°55'0 0.0
2019-Apr-18 19:30N 52°34' E 005°55'0 0.0
2019-Apr-18 19:00N 52°34' E 005°55'0 0.0
2019-Apr-18 18:30N 52°34' E 005°55'0 0.0
2019-Apr-18 18:00N 52°34' E 005°55'0 0.0
2019-Apr-18 17:30N 52°34' E 005°55'0 0.0
2019-Apr-18 17:00N 52°34' E 005°55'0 0.0
2019-Apr-18 16:30N 52°34' E 005°55'0 0.0
2019-Apr-18 16:00N 52°34' E 005°55'0 0.0
2019-Apr-18 15:30N 52°34' E 005°55'0 0.0
2019-Apr-18 15:00N 52°34' E 005°55'0 0.0
2019-Apr-18 14:30N 52°34' E 005°55'0 0.0
2019-Apr-18 14:00N 52°34' E 005°55'0 0.0
2019-Apr-18 13:30N 52°34' E 005°55'0 0.0
2019-Apr-18 13:00N 52°34' E 005°55'0 0.0
2019-Apr-18 12:30N 52°34' E 005°55'0 0.0
2019-Apr-18 12:00N 52°34' E 005°55'0 0.0
2019-Apr-18 11:30N 52°34' E 005°55'0 0.0
2019-Apr-18 11:00N 52°34' E 005°55'0 0.0
2019-Apr-18 10:30N 52°34' E 005°55'0 0.0
2019-Apr-18 10:00N 52°34' E 005°55'0 0.0
2019-Apr-18 09:30N 52°34' E 005°55'0 0.0
2019-Apr-18 09:00N 52°34' E 005°55'0 0.0
2019-Apr-18 08:30N 52°34' E 005°55'0 0.0
2019-Apr-18 08:00N 52°34' E 005°55'0 0.0
2019-Apr-18 07:30N 52°34' E 005°55'0 0.0
2019-Apr-18 07:00N 52°34' E 005°55'0 0.0
2019-Apr-18 06:30N 52°34' E 005°55'0 0.0
2019-Apr-18 06:00N 52°34' E 005°55'0 0.0
2019-Apr-18 05:30N 52°34' E 005°55'0 0.0
2019-Apr-18 05:00N 52°34' E 005°55'0 0.0
2019-Apr-18 04:30N 52°34' E 005°55'0 0.0
2019-Apr-18 04:00N 52°34' E 005°55'0 0.0
2019-Apr-18 03:30N 52°34' E 005°55'0 0.0
2019-Apr-18 03:00N 52°34' E 005°55'0 0.0
2019-Apr-18 02:30N 52°34' E 005°55'0 0.0
2019-Apr-18 02:00N 52°34' E 005°55'0 0.0
2019-Apr-18 01:30N 52°34' E 005°55'0 0.0
2019-Apr-18 01:00N 52°34' E 005°55'0 0.0
2019-Apr-18 00:30N 52°34' E 005°55'0 0.0
2019-Apr-18 00:00N 52°34' E 005°55'0 0.0
2019-Apr-17 23:30N 52°34' E 005°55'0 0.0
2019-Apr-17 23:00N 52°34' E 005°55'0 0.0
2019-Apr-17 22:30N 52°34' E 005°55'0 0.0
2019-Apr-17 22:00N 52°34' E 005°55'0 0.0
2019-Apr-17 21:30N 52°34' E 005°55'0 0.0
2019-Apr-17 21:00N 52°34' E 005°55'0 0.0
2019-Apr-17 20:30N 52°34' E 005°55'0 0.0
2019-Apr-17 20:00N 52°34' E 005°55'0 0.0
2019-Apr-17 19:30N 52°34' E 005°55'0 0.0
2019-Apr-17 19:00N 52°34' E 005°55'0 0.0
2019-Apr-17 18:30N 52°34' E 005°55'0 0.0
2019-Apr-17 18:00N 52°34' E 005°55'0 0.0
2019-Apr-17 17:30N 52°34' E 005°55'0 0.0
2019-Apr-17 17:00N 52°34' E 005°55'0 0.0
2019-Apr-17 16:30N 52°34' E 005°55'0 0.0
2019-Apr-17 16:00N 52°34' E 005°55'0 0.0
2019-Apr-17 15:30N 52°34' E 005°55'0 0.0
2019-Apr-17 15:00N 52°34' E 005°55'0 0.0
2019-Apr-17 14:30N 52°34' E 005°55'0 0.0
2019-Apr-17 14:00N 52°34' E 005°55'0 0.0
2019-Apr-17 13:30N 52°34' E 005°55'0 0.0
2019-Apr-17 13:00N 52°34' E 005°55'0 0.0
2019-Apr-17 12:30N 52°34' E 005°55'0 0.0
2019-Apr-17 12:00N 52°34' E 005°55'0 0.0
2019-Apr-17 11:30N 52°34' E 005°55'0 0.0
2019-Apr-17 11:00N 52°34' E 005°55'0 0.0
2019-Apr-17 10:30N 52°34' E 005°55'0 0.0
2019-Apr-17 10:00N 52°34' E 005°55'0 0.0
2019-Apr-17 09:30N 52°34' E 005°55'0 0.0
2019-Apr-17 09:00N 52°34' E 005°55'0 0.0
2019-Apr-17 08:30N 52°34' E 005°55'0 0.0
2019-Apr-17 08:00N 52°34' E 005°55'0 0.0
2019-Apr-17 07:30N 52°34' E 005°55'0 0.0
2019-Apr-17 07:00N 52°34' E 005°55'0 0.0
2019-Apr-17 06:30N 52°34' E 005°55'0 0.0
2019-Apr-17 06:00N 52°34' E 005°55'0 0.0
2019-Apr-17 05:30N 52°34' E 005°55'0 0.0
2019-Apr-17 05:00N 52°34' E 005°55'0 0.0
2019-Apr-17 04:30N 52°34' E 005°55'0 0.0
2019-Apr-17 04:00N 52°34' E 005°55'0 0.0
2019-Apr-17 03:30N 52°34' E 005°55'0 0.0
2019-Apr-17 03:00N 52°34' E 005°55'0 0.0
2019-Apr-17 02:30N 52°34' E 005°55'0 0.0
2019-Apr-17 02:00N 52°34' E 005°55'0 0.0
2019-Apr-17 01:30N 52°34' E 005°55'0 0.0
2019-Apr-17 01:00N 52°34' E 005°55'0 0.0
2019-Apr-17 00:30N 52°34' E 005°55'0 0.0
2019-Apr-17 00:00N 52°34' E 005°55'0 0.0
2019-Apr-16 23:30N 52°34' E 005°55'0 0.0
2019-Apr-16 23:00N 52°34' E 005°55'0 0.0
2019-Apr-16 22:30N 52°34' E 005°55'0 0.0
2019-Apr-16 22:00N 52°34' E 005°55'0 0.0
2019-Apr-16 21:30N 52°34' E 005°55'0 0.0
2019-Apr-16 21:00N 52°34' E 005°55'0 0.0
2019-Apr-16 20:30N 52°34' E 005°55'0 0.0
2019-Apr-16 20:00N 52°34' E 005°55'0 0.0
2019-Apr-16 19:30N 52°34' E 005°55'0 0.0
2019-Apr-16 19:00N 52°34' E 005°55'0 0.0
2019-Apr-16 18:30N 52°34' E 005°55'0 0.0
2019-Apr-16 18:00N 52°34' E 005°55'0 0.0
2019-Apr-16 17:30N 52°34' E 005°55'0 0.0
2019-Apr-16 17:00N 52°34' E 005°55'0 0.0
2019-Apr-16 16:30N 52°34' E 005°55'0 0.0
2019-Apr-16 16:00N 52°34' E 005°55'0 0.0
2019-Apr-16 15:30N 52°34' E 005°55'0 0.0
2019-Apr-16 15:00N 52°34' E 005°55'0 0.0
2019-Apr-16 14:30N 52°34' E 005°55'0 0.0
2019-Apr-16 14:00N 52°34' E 005°55'0 0.0
2019-Apr-16 13:30N 52°34' E 005°55'0 0.0
2019-Apr-16 13:00N 52°34' E 005°55'0 0.0
2019-Apr-16 12:30N 52°34' E 005°55'0 0.0
2019-Apr-16 12:00N 52°34' E 005°55'0 0.0
2019-Apr-16 11:30N 52°34' E 005°55'0 0.0
2019-Apr-16 11:00N 52°34' E 005°55'0 0.0
2019-Apr-16 10:30N 52°34' E 005°55'0 0.0
2019-Apr-16 10:00N 52°34' E 005°55'0 0.0
2019-Apr-16 09:30N 52°34' E 005°55'0 0.0
2019-Apr-16 09:00N 52°34' E 005°55'0 0.0
2019-Apr-16 08:30N 52°34' E 005°55'0 0.0
2019-Apr-16 08:00N 52°34' E 005°55'0 0.0
2019-Apr-16 07:30N 52°34' E 005°55'0 0.0
2019-Apr-16 07:00N 52°34' E 005°55'0 0.0
2019-Apr-16 06:30N 52°34' E 005°55'0 0.0
2019-Apr-16 06:00N 52°34' E 005°55'0 0.0
2019-Apr-16 05:30N 52°34' E 005°55'0 0.0
2019-Apr-16 05:00N 52°34' E 005°55'0 0.0
2019-Apr-16 04:30N 52°34' E 005°55'0 0.0
2019-Apr-16 04:00N 52°34' E 005°55'0 0.0
2019-Apr-16 03:30N 52°34' E 005°55'0 0.0
2019-Apr-16 03:00N 52°34' E 005°55'0 0.0
2019-Apr-16 02:30N 52°34' E 005°55'0 0.0
2019-Apr-16 02:00N 52°34' E 005°55'0 0.0
2019-Apr-16 01:30N 52°34' E 005°55'0 0.0
2019-Apr-16 01:00N 52°34' E 005°55'0 0.0
2019-Apr-16 00:30N 52°34' E 005°55'0 0.0
2019-Apr-16 00:00N 52°34' E 005°55'0 0.0
2019-Apr-15 23:30N 52°34' E 005°55'0 0.0
2019-Apr-15 23:00N 52°34' E 005°55'0 0.0
2019-Apr-15 22:30N 52°34' E 005°55'0 0.0
2019-Apr-15 22:00N 52°34' E 005°55'0 0.0
2019-Apr-15 21:30N 52°34' E 005°55'0 0.0
2019-Apr-15 21:00N 52°34' E 005°55'0 0.0
2019-Apr-15 20:30N 52°34' E 005°55'0 0.0
2019-Apr-15 20:00N 52°34' E 005°55'0 0.0
2019-Apr-15 19:30N 52°34' E 005°55'0 0.0
2019-Apr-15 19:00N 52°34' E 005°55'0 0.0
2019-Apr-15 18:30N 52°34' E 005°55'0 0.0
2019-Apr-15 18:00N 52°34' E 005°55'0 0.0
2019-Apr-15 17:30N 52°34' E 005°55'0 0.0
2019-Apr-15 17:00N 52°34' E 005°55'0 0.0
2019-Apr-15 16:30N 52°34' E 005°55'0 0.0
2019-Apr-15 16:00N 52°34' E 005°55'0 0.0
2019-Apr-15 15:30N 52°34' E 005°55'0 0.0
2019-Apr-15 15:00N 52°34' E 005°55'0 0.0
2019-Apr-15 14:30N 52°34' E 005°55'0 0.0
2019-Apr-15 14:00N 52°34' E 005°55'0 0.0
2019-Apr-15 13:30N 52°34' E 005°55'0 0.0
2019-Apr-15 13:00N 52°34' E 005°55'0 0.0
2019-Apr-15 12:30N 52°34' E 005°55'0 0.0
2019-Apr-15 12:00N 52°34' E 005°55'  
Track history (hours):
 
Tides and Currents Weather Stations Pressure Air Temp Water Temp Dewpoint Dewpoint Depression Visibility Wind Speed Wind Dir Waves Ship Positions

Oban

Last reported at 2019-Apr-25 12:00 UTC. Time now 2019-Apr-25 12:30 UTC.
Position N 54°08' E 009°20'.

Length 39 m; draft 2.8 m.

Type: Sailing vessel. MMSI: 246085000.

Date/timePositionNaut miles runAvg speedWind from/ knotsBaromVisibWave heightAir tempDewpointWater temp
2019-Apr-25 12:00N 54°08' E 009°20'3 6.8
2019-Apr-25 11:30N 54°04' E 009°19'3 6.9
2019-Apr-25 11:00N 54°01' E 009°18'10 5.2
2019-Apr-25 09:09N 53°53' E 009°08'1 3.0
2019-Apr-25 08:55N 53°53' E 009°07'2 4.3
2019-Apr-25 08:30N 53°52' E 009°04'2 5.0
2019-Apr-25 08:00N 53°51' E 009°00'2 4.7
2019-Apr-25 07:30N 53°51' E 008°57'4 5.6
2019-Apr-25 06:52N 53°50' E 008°50'2 5.7
2019-Apr-25 06:30N 53°50' E 008°47'3 5.3
2019-Apr-25 06:00N 53°52' E 008°43'3 6.0
2019-Apr-25 05:30N 53°54' E 008°41'3 5.9
2019-Apr-25 05:00N 53°57' E 008°38'8 7.2
2019-Apr-25 03:57N 53°59' E 008°25'3 7.4
2019-Apr-25 03:30N 53°59' E 008°20'10 8.1
2019-Apr-25 02:13N 53°58' E 008°02'6 8.5
2019-Apr-25 01:34N 53°56' E 007°53'1 8.5
2019-Apr-25 01:27N 53°56' E 007°52'6 8.1
2019-Apr-25 00:46N 53°54' E 007°43'93 6.9
2019-Apr-24 11:15N 53°26' E 005°13'4 8.1
2019-Apr-24 10:46N 53°25' E 005°07'2 6.2
2019-Apr-24 10:23N 53°23' E 005°03'3 8.2
2019-Apr-24 09:58N 53°21' E 004°59'3 5.8
2019-Apr-24 09:30N 53°19' E 005°01'3 5.8
2019-Apr-24 09:00N 53°19' E 005°06'3 5.8
2019-Apr-24 08:30N 53°18' E 005°11'3 5.5
2019-Apr-24 08:00N 53°16' E 005°10'2 4.8
2019-Apr-24 07:30N 53°14' E 005°12'3 5.9
2019-Apr-24 07:00N 53°13' E 005°17'3 6.6
2019-Apr-24 06:30N 53°11' E 005°21'2 4.2
2019-Apr-24 06:00N 53°10' E 005°25'0 0.0
2019-Apr-24 05:30N 53°10' E 005°25'0 0.0
2019-Apr-24 05:00N 53°10' E 005°25'0 0.0
2019-Apr-24 04:30N 53°10' E 005°25'0 0.0
2019-Apr-24 04:00N 53°10' E 005°25'0 0.0
2019-Apr-24 03:30N 53°10' E 005°25'0 0.0
2019-Apr-24 03:00N 53°10' E 005°25'0 0.0
2019-Apr-24 02:30N 53°10' E 005°25'0 0.0
2019-Apr-24 02:00N 53°10' E 005°25'0 0.0
2019-Apr-24 01:30N 53°10' E 005°25'0 0.0
2019-Apr-24 01:00N 53°10' E 005°25'0 0.0
2019-Apr-24 00:30N 53°10' E 005°25'0 0.0
2019-Apr-24 00:00N 53°10' E 005°25'0 0.0
2019-Apr-23 23:30N 53°10' E 005°25'0 0.0
2019-Apr-23 23:00N 53°10' E 005°25'0 0.0
2019-Apr-23 22:30N 53°10' E 005°25'0 0.0
2019-Apr-23 22:00N 53°10' E 005°25'0 0.0
2019-Apr-23 21:30N 53°10' E 005°25'0 0.2
2019-Apr-23 21:00N 53°10' E 005°25'2 3.3
2019-Apr-23 20:30N 53°09' E 005°23'3 5.6
2019-Apr-23 20:00N 53°06' E 005°22'2 4.8
2019-Apr-23 19:30N 53°04' E 005°20'0 0.4
2019-Apr-23 19:00N 53°04' E 005°20'0 0.0
2019-Apr-23 18:30N 53°04' E 005°20'0 0.0
2019-Apr-23 18:00N 53°04' E 005°20'0 0.8
2019-Apr-23 17:30N 53°04' E 005°21'2 4.4
2019-Apr-23 17:00N 53°02' E 005°21'3 6.9
2019-Apr-23 16:30N 52°58' E 005°19'4 8.3
2019-Apr-23 16:00N 52°54' E 005°19'4 8.0
2019-Apr-23 15:30N 52°50' E 005°19'3 5.4
2019-Apr-23 15:00N 52°47' E 005°20'3 5.1
2019-Apr-23 14:30N 52°45' E 005°22'3 6.4
2019-Apr-23 14:00N 52°43' E 005°26'3 6.3
2019-Apr-23 13:30N 52°41' E 005°30'3 6.7
2019-Apr-23 13:00N 52°39' E 005°34'3 6.4
2019-Apr-23 12:30N 52°37' E 005°38'1 1.1
2019-Apr-23 12:00N 52°37' E 005°39'2 3.1
2019-Apr-23 11:30N 52°36' E 005°41'2 4.9
2019-Apr-23 11:00N 52°35' E 005°45'3 5.5
2019-Apr-23 10:30N 52°35' E 005°49'3 6.3
2019-Apr-23 10:00N 52°34' E 005°54'0 0.5
2019-Apr-23 09:30N 52°34' E 005°55'0 0.0
2019-Apr-23 09:00N 52°34' E 005°55'0 0.0
2019-Apr-23 08:30N 52°34' E 005°55'0 0.0
2019-Apr-23 08:00N 52°34' E 005°55'0 0.0
2019-Apr-23 07:30N 52°34' E 005°55'0 0.0
2019-Apr-23 07:00N 52°34' E 005°55'0 0.0
2019-Apr-23 06:30N 52°34' E 005°55'0 0.0
2019-Apr-23 06:00N 52°34' E 005°55'0 0.0
2019-Apr-23 05:30N 52°34' E 005°55'0 0.0
2019-Apr-23 05:00N 52°34' E 005°55'0 0.0
2019-Apr-23 04:30N 52°34' E 005°55'0 0.0
2019-Apr-23 04:00N 52°34' E 005°55'0 0.0
2019-Apr-23 03:30N 52°34' E 005°55'0 0.0
2019-Apr-23 03:00N 52°34' E 005°55'0 0.0
2019-Apr-23 02:30N 52°34' E 005°55'0 0.0
2019-Apr-23 02:00N 52°34' E 005°55'0 0.0
2019-Apr-23 01:30N 52°34' E 005°55'0 0.0
2019-Apr-23 01:00N 52°34' E 005°55'0 0.0
2019-Apr-23 00:30N 52°34' E 005°55'0 0.0
2019-Apr-23 00:00N 52°34' E 005°55'0 0.0
2019-Apr-22 23:30N 52°34' E 005°55'0 0.0
2019-Apr-22 23:00N 52°34' E 005°55'0 0.0
2019-Apr-22 22:30N 52°34' E 005°55'0 0.0
2019-Apr-22 22:00N 52°34' E 005°55'0 0.0
2019-Apr-22 21:30N 52°34' E 005°55'0 0.0
2019-Apr-22 21:00N 52°34' E 005°55'0 0.0
2019-Apr-22 20:30N 52°34' E 005°55'0 0.0
2019-Apr-22 20:00N 52°34' E 005°55'0 0.0
2019-Apr-22 19:30N 52°34' E 005°55'0 0.0
2019-Apr-22 19:00N 52°34' E 005°55'0 0.0
2019-Apr-22 18:30N 52°34' E 005°55'0 0.0
2019-Apr-22 18:00N 52°34' E 005°55'0 0.0
2019-Apr-22 17:30N 52°34' E 005°55'0 0.0
2019-Apr-22 17:00N 52°34' E 005°55'0 0.0
2019-Apr-22 16:30N 52°34' E 005°55'0 0.0
2019-Apr-22 16:00N 52°34' E 005°55'0 0.0
2019-Apr-22 15:30N 52°34' E 005°55'0 0.0
2019-Apr-22 15:00N 52°34' E 005°55'0 0.0
2019-Apr-22 14:30N 52°34' E 005°55'0 0.0
2019-Apr-22 14:00N 52°34' E 005°55'0 0.0
2019-Apr-22 13:30N 52°34' E 005°55'0 0.0
2019-Apr-22 13:00N 52°34' E 005°55'0 0.0
2019-Apr-22 12:30N 52°34' E 005°55'0 0.0
2019-Apr-22 12:00N 52°34' E 005°55'0 0.0
2019-Apr-22 11:30N 52°34' E 005°55'0 0.0
2019-Apr-22 11:00N 52°34' E 005°55'0 0.0
2019-Apr-22 10:30N 52°34' E 005°55'0 0.0
2019-Apr-22 10:00N 52°34' E 005°55'0 0.0
2019-Apr-22 09:30N 52°34' E 005°55'0 0.0
2019-Apr-22 09:00N 52°34' E 005°55'0 0.0
2019-Apr-22 08:30N 52°34' E 005°55'0 0.0
2019-Apr-22 08:00N 52°34' E 005°55'0 0.0
2019-Apr-22 07:30N 52°34' E 005°55'0 0.0
2019-Apr-22 07:00N 52°34' E 005°55'0 0.0
2019-Apr-22 06:30N 52°34' E 005°55'0 0.0
2019-Apr-22 06:00N 52°34' E 005°55'0 0.0
2019-Apr-22 05:30N 52°34' E 005°55'0 0.0
2019-Apr-22 05:00N 52°34' E 005°55'0 0.0
2019-Apr-22 04:30N 52°34' E 005°55'0 0.0
2019-Apr-22 04:00N 52°34' E 005°55'0 0.0
2019-Apr-22 03:30N 52°34' E 005°55'0 0.0
2019-Apr-22 03:00N 52°34' E 005°55'0 0.0
2019-Apr-22 02:30N 52°34' E 005°55'0 0.0
2019-Apr-22 02:00N 52°34' E 005°55'0 0.0
2019-Apr-22 01:30N 52°34' E 005°55'0 0.0
2019-Apr-22 01:00N 52°34' E 005°55'0 0.0
2019-Apr-22 00:30N 52°34' E 005°55'0 0.0
2019-Apr-22 00:00N 52°34' E 005°55'0 0.0
2019-Apr-21 23:30N 52°34' E 005°55'0 0.0
2019-Apr-21 23:00N 52°34' E 005°55'0 0.0
2019-Apr-21 22:30N 52°34' E 005°55'0 0.0
2019-Apr-21 22:00N 52°34' E 005°55'0 0.0
2019-Apr-21 21:30N 52°34' E 005°55'0 0.0
2019-Apr-21 21:00N 52°34' E 005°55'0 0.0
2019-Apr-21 20:30N 52°34' E 005°55'0 0.0
2019-Apr-21 20:00N 52°34' E 005°55'0 0.0
2019-Apr-21 19:30N 52°34' E 005°55'0 0.0
2019-Apr-21 19:00N 52°34' E 005°55'0 0.0
2019-Apr-21 18:30N 52°34' E 005°55'0 0.0
2019-Apr-21 18:00N 52°34' E 005°55'0 0.0
2019-Apr-21 17:30N 52°34' E 005°55'0 0.0
2019-Apr-21 17:00N 52°34' E 005°55'0 0.0
2019-Apr-21 16:30N 52°34' E 005°55'0 0.0
2019-Apr-21 16:00N 52°34' E 005°55'0 0.0
2019-Apr-21 15:30N 52°34' E 005°55'0 0.0
2019-Apr-21 15:00N 52°34' E 005°55'0 0.0
2019-Apr-21 14:30N 52°34' E 005°55'0 0.0
2019-Apr-21 14:00N 52°34' E 005°55'0 0.0
2019-Apr-21 13:30N 52°34' E 005°55'0 0.0
2019-Apr-21 13:00N 52°34' E 005°55'0 0.0
2019-Apr-21 12:30N 52°34' E 005°55'0 0.0
2019-Apr-21 12:00N 52°34' E 005°55'0 0.0
2019-Apr-21 11:30N 52°34' E 005°55'0 0.0
2019-Apr-21 11:00N 52°34' E 005°55'0 0.0
2019-Apr-21 10:30N 52°34' E 005°55'0 0.0
2019-Apr-21 10:00N 52°34' E 005°55'0 0.0
2019-Apr-21 09:30N 52°34' E 005°55'0 0.0
2019-Apr-21 09:00N 52°34' E 005°55'0 0.0
2019-Apr-21 08:30N 52°34' E 005°55'0 0.0
2019-Apr-21 08:00N 52°34' E 005°55'0 0.0
2019-Apr-21 07:30N 52°34' E 005°55'0 0.0
2019-Apr-21 07:00N 52°34' E 005°55'0 0.0
2019-Apr-21 06:30N 52°34' E 005°55'0 0.0
2019-Apr-21 06:00N 52°34' E 005°55'0 0.0
2019-Apr-21 05:30N 52°34' E 005°55'0 0.0
2019-Apr-21 05:00N 52°34' E 005°55'0 0.0
2019-Apr-21 04:30N 52°34' E 005°55'0 0.0
2019-Apr-21 04:00N 52°34' E 005°55'0 0.0
2019-Apr-21 03:30N 52°34' E 005°55'0 0.0
2019-Apr-21 03:00N 52°34' E 005°55'0 0.0
2019-Apr-21 02:30N 52°34' E 005°55'0 0.0
2019-Apr-21 02:00N 52°34' E 005°55'0 0.0
2019-Apr-21 01:30N 52°34' E 005°55'0 0.0
2019-Apr-21 01:00N 52°34' E 005°55'0 0.0
2019-Apr-21 00:30N 52°34' E 005°55'0 0.0
2019-Apr-21 00:00N 52°34' E 005°55'0 0.0
2019-Apr-20 23:30N 52°34' E 005°55'0 0.0
2019-Apr-20 23:00N 52°34' E 005°55'0 0.0
2019-Apr-20 22:30N 52°34' E 005°55'0 0.0
2019-Apr-20 22:00N 52°34' E 005°55'0 0.0
2019-Apr-20 21:30N 52°34' E 005°55'0 0.0
2019-Apr-20 21:00N 52°34' E 005°55'0 0.0
2019-Apr-20 20:30N 52°34' E 005°55'0 0.0
2019-Apr-20 20:00N 52°34' E 005°55'0 0.0
2019-Apr-20 19:30N 52°34' E 005°55'0 0.0
2019-Apr-20 19:00N 52°34' E 005°55'0 0.0
2019-Apr-20 18:30N 52°34' E 005°55'0 0.0
2019-Apr-20 18:00N 52°34' E 005°55'0 0.0
2019-Apr-20 17:30N 52°34' E 005°55'0 0.0
2019-Apr-20 17:00N 52°34' E 005°55'0 0.0
2019-Apr-20 16:30N 52°34' E 005°55'0 0.0
2019-Apr-20 16:00N 52°34' E 005°55'0 0.0
2019-Apr-20 15:30N 52°34' E 005°55'0 0.0
2019-Apr-20 15:00N 52°34' E 005°55'0 0.0
2019-Apr-20 14:30N 52°34' E 005°55'0 0.0
2019-Apr-20 14:00N 52°34' E 005°55'0 0.0
2019-Apr-20 13:30N 52°34' E 005°55'0 0.0
2019-Apr-20 13:00N 52°34' E 005°55'0 0.0
2019-Apr-20 12:30N 52°34' E 005°55'0 0.0
2019-Apr-20 12:00N 52°34' E 005°55'0 0.0
2019-Apr-20 11:30N 52°34' E 005°55'0 0.0
2019-Apr-20 11:00N 52°34' E 005°55'0 0.0
2019-Apr-20 10:30N 52°34' E 005°55'0 0.0
2019-Apr-20 10:00N 52°34' E 005°55'0 0.0
2019-Apr-20 09:30N 52°34' E 005°55'0 0.0
2019-Apr-20 09:00N 52°34' E 005°55'0 0.0
2019-Apr-20 08:30N 52°34' E 005°55'0 0.0
2019-Apr-20 08:00N 52°34' E 005°55'0 0.0
2019-Apr-20 07:30N 52°34' E 005°55'0 0.0
2019-Apr-20 07:00N 52°34' E 005°55'0 0.0
2019-Apr-20 06:30N 52°34' E 005°55'0 0.4
2019-Apr-20 06:00N 52°34' E 005°55'0 0.0
2019-Apr-20 05:30N 52°34' E 005°55'0 0.0
2019-Apr-20 05:00N 52°34' E 005°55'0 0.0
2019-Apr-20 04:30N 52°34' E 005°55'0 0.0
2019-Apr-20 04:00N 52°34' E 005°55'0 0.0
2019-Apr-20 03:30N 52°34' E 005°55'0 0.0
2019-Apr-20 03:00N 52°34' E 005°55'0 0.0
2019-Apr-20 02:30N 52°34' E 005°55'0 0.0
2019-Apr-20 02:00N 52°34' E 005°55'0 0.0
2019-Apr-20 01:30N 52°34' E 005°55'0 0.0
2019-Apr-20 01:00N 52°34' E 005°55'0 0.0
2019-Apr-20 00:30N 52°34' E 005°55'0 0.0
2019-Apr-20 00:00N 52°34' E 005°55'0 0.0
2019-Apr-19 23:30N 52°34' E 005°55'0 0.0
2019-Apr-19 23:00N 52°34' E 005°55'0 0.0
2019-Apr-19 22:30N 52°34' E 005°55'0 0.0
2019-Apr-19 22:00N 52°34' E 005°55'0 0.0
2019-Apr-19 21:30N 52°34' E 005°55'0 0.0
2019-Apr-19 21:00N 52°34' E 005°55'0 0.0
2019-Apr-19 20:30N 52°34' E 005°55'0 0.0
2019-Apr-19 20:00N 52°34' E 005°55'0 0.0
2019-Apr-19 19:30N 52°34' E 005°55'0 0.0
2019-Apr-19 19:00N 52°34' E 005°55'0 0.0
2019-Apr-19 18:30N 52°34' E 005°55'0 0.0
2019-Apr-19 18:00N 52°34' E 005°55'0 0.0
2019-Apr-19 17:30N 52°34' E 005°55'0 0.0
2019-Apr-19 17:00N 52°34' E 005°55'0 0.0
2019-Apr-19 16:30N 52°34' E 005°55'0 0.0
2019-Apr-19 16:00N 52°34' E 005°55'0 0.0
2019-Apr-19 15:30N 52°34' E 005°55'0 0.0
2019-Apr-19 15:00N 52°34' E 005°55'0 0.0
2019-Apr-19 14:30N 52°34' E 005°55'0 0.0
2019-Apr-19 14:00N 52°34' E 005°55'0 0.0
2019-Apr-19 13:30N 52°34' E 005°55'0 0.0
2019-Apr-19 13:00N 52°34' E 005°55'0 0.0
2019-Apr-19 12:30N 52°34' E 005°55'0 0.0
2019-Apr-19 12:00N 52°34' E 005°55'0 0.0
2019-Apr-19 11:30N 52°34' E 005°55'0 0.0
2019-Apr-19 11:00N 52°34' E 005°55'0 0.0
2019-Apr-19 10:30N 52°34' E 005°55'0 0.0
2019-Apr-19 10:00N 52°34' E 005°55'0 0.0
2019-Apr-19 09:30N 52°34' E 005°55'0 0.0
2019-Apr-19 09:00N 52°34' E 005°55'0 0.0
2019-Apr-19 08:30N 52°34' E 005°55'0 0.0
2019-Apr-19 08:00N 52°34' E 005°55'0 0.0
2019-Apr-19 07:30N 52°34' E 005°55'0 0.0
2019-Apr-19 07:00N 52°34' E 005°55'0 0.0
2019-Apr-19 06:30N 52°34' E 005°55'0 0.0
2019-Apr-19 06:00N 52°34' E 005°55'0 0.0
2019-Apr-19 05:30N 52°34' E 005°55'0 0.0
2019-Apr-19 05:00N 52°34' E 005°55'0 0.0
2019-Apr-19 04:30N 52°34' E 005°55'0 0.0
2019-Apr-19 04:00N 52°34' E 005°55'0 0.0
2019-Apr-19 03:30N 52°34' E 005°55'0 0.0
2019-Apr-19 03:00N 52°34' E 005°55'0 0.0
2019-Apr-19 02:30N 52°34' E 005°55'0 0.0
2019-Apr-19 02:00N 52°34' E 005°55'0 0.0
2019-Apr-19 01:30N 52°34' E 005°55'0 0.0
2019-Apr-19 01:00N 52°34' E 005°55'0 0.0
2019-Apr-19 00:30N 52°34' E 005°55'0 0.0
2019-Apr-19 00:00N 52°34' E 005°55'0 0.0
2019-Apr-18 23:30N 52°34' E 005°55'0 0.0
2019-Apr-18 23:00N 52°34' E 005°55'0 0.0
2019-Apr-18 22:30N 52°34' E 005°55'0 0.0
2019-Apr-18 22:00N 52°34' E 005°55'0 0.0
2019-Apr-18 21:30N 52°34' E 005°55'0 0.0
2019-Apr-18 21:00N 52°34' E 005°55'0 0.0
2019-Apr-18 20:30N 52°34' E 005°55'0 0.0
2019-Apr-18 20:00N 52°34' E 005°55'0 0.0
2019-Apr-18 19:30N 52°34' E 005°55'0 0.0
2019-Apr-18 19:00N 52°34' E 005°55'0 0.0
2019-Apr-18 18:30N 52°34' E 005°55'0 0.0
2019-Apr-18 18:00N 52°34' E 005°55'0 0.0
2019-Apr-18 17:30N 52°34' E 005°55'0 0.0
2019-Apr-18 17:00N 52°34' E 005°55'0 0.0
2019-Apr-18 16:30N 52°34' E 005°55'0 0.0
2019-Apr-18 16:00N 52°34' E 005°55'0 0.0
2019-Apr-18 15:30N 52°34' E 005°55'0 0.0
2019-Apr-18 15:00N 52°34' E 005°55'0 0.0
2019-Apr-18 14:30N 52°34' E 005°55'0 0.0
2019-Apr-18 14:00N 52°34' E 005°55'0 0.0
2019-Apr-18 13:30N 52°34' E 005°55'0 0.0
2019-Apr-18 13:00N 52°34' E 005°55'0 0.0
2019-Apr-18 12:30N 52°34' E 005°55'0 0.0
2019-Apr-18 12:00N 52°34' E 005°55'0 0.0
2019-Apr-18 11:30N 52°34' E 005°55'0 0.0
2019-Apr-18 11:00N 52°34' E 005°55'0 0.0
2019-Apr-18 10:30N 52°34' E 005°55'0 0.0
2019-Apr-18 10:00N 52°34' E 005°55'0 0.0
2019-Apr-18 09:30N 52°34' E 005°55'0 0.0
2019-Apr-18 09:00N 52°34' E 005°55'0 0.0
2019-Apr-18 08:30N 52°34' E 005°55'0 0.0
2019-Apr-18 08:00N 52°34' E 005°55'0 0.0
2019-Apr-18 07:30N 52°34' E 005°55'0 0.0
2019-Apr-18 07:00N 52°34' E 005°55'0 0.0
2019-Apr-18 06:30N 52°34' E 005°55'0 0.0
2019-Apr-18 06:00N 52°34' E 005°55'0 0.0
2019-Apr-18 05:30N 52°34' E 005°55'0 0.0
2019-Apr-18 05:00N 52°34' E 005°55'0 0.0
2019-Apr-18 04:30N 52°34' E 005°55'0 0.0
2019-Apr-18 04:00N 52°34' E 005°55'0 0.0
2019-Apr-18 03:30N 52°34' E 005°55'0 0.0
2019-Apr-18 03:00N 52°34' E 005°55'0 0.0
2019-Apr-18 02:30N 52°34' E 005°55'0 0.0
2019-Apr-18 02:00N 52°34' E 005°55'0 0.0
2019-Apr-18 01:30N 52°34' E 005°55'0 0.0
2019-Apr-18 01:00N 52°34' E 005°55'0 0.0
2019-Apr-18 00:30N 52°34' E 005°55'0 0.0
2019-Apr-18 00:00N 52°34' E 005°55'0 0.0
2019-Apr-17 23:30N 52°34' E 005°55'0 0.0
2019-Apr-17 23:00N 52°34' E 005°55'0 0.0
2019-Apr-17 22:30N 52°34' E 005°55'0 0.0
2019-Apr-17 22:00N 52°34' E 005°55'0 0.0
2019-Apr-17 21:30N 52°34' E 005°55'0 0.0
2019-Apr-17 21:00N 52°34' E 005°55'0 0.0
2019-Apr-17 20:30N 52°34' E 005°55'0 0.0
2019-Apr-17 20:00N 52°34' E 005°55'0 0.0
2019-Apr-17 19:30N 52°34' E 005°55'0 0.0
2019-Apr-17 19:00N 52°34' E 005°55'0 0.0
2019-Apr-17 18:30N 52°34' E 005°55'0 0.0
2019-Apr-17 18:00N 52°34' E 005°55'0 0.0
2019-Apr-17 17:30N 52°34' E 005°55'0 0.0
2019-Apr-17 17:00N 52°34' E 005°55'0 0.0
2019-Apr-17 16:30N 52°34' E 005°55'0 0.0
2019-Apr-17 16:00N 52°34' E 005°55'0 0.0
2019-Apr-17 15:30N 52°34' E 005°55'0 0.0
2019-Apr-17 15:00N 52°34' E 005°55'0 0.0
2019-Apr-17 14:30N 52°34' E 005°55'0 0.0
2019-Apr-17 14:00N 52°34' E 005°55'0 0.0
2019-Apr-17 13:30N 52°34' E 005°55'0 0.0
2019-Apr-17 13:00N 52°34' E 005°55'0 0.0
2019-Apr-17 12:30N 52°34' E 005°55'0 0.0
2019-Apr-17 12:00N 52°34' E 005°55'0 0.0
2019-Apr-17 11:30N 52°34' E 005°55'0 0.0
2019-Apr-17 11:00N 52°34' E 005°55'0 0.0
2019-Apr-17 10:30N 52°34' E 005°55'0 0.0
2019-Apr-17 10:00N 52°34' E 005°55'0 0.0
2019-Apr-17 09:30N 52°34' E 005°55'0 0.0
2019-Apr-17 09:00N 52°34' E 005°55'0 0.0
2019-Apr-17 08:30N 52°34' E 005°55'0 0.0
2019-Apr-17 08:00N 52°34' E 005°55'0 0.0
2019-Apr-17 07:30N 52°34' E 005°55'0 0.0
2019-Apr-17 07:00N 52°34' E 005°55'0 0.0
2019-Apr-17 06:30N 52°34' E 005°55'0 0.0
2019-Apr-17 06:00N 52°34' E 005°55'0 0.0
2019-Apr-17 05:30N 52°34' E 005°55'0 0.0
2019-Apr-17 05:00N 52°34' E 005°55'0 0.0
2019-Apr-17 04:30N 52°34' E 005°55'0 0.0
2019-Apr-17 04:00N 52°34' E 005°55'0 0.0
2019-Apr-17 03:30N 52°34' E 005°55'0 0.0
2019-Apr-17 03:00N 52°34' E 005°55'0 0.0
2019-Apr-17 02:30N 52°34' E 005°55'0 0.0
2019-Apr-17 02:00N 52°34' E 005°55'0 0.0
2019-Apr-17 01:30N 52°34' E 005°55'0 0.0
2019-Apr-17 01:00N 52°34' E 005°55'0 0.0
2019-Apr-17 00:30N 52°34' E 005°55'0 0.0
2019-Apr-17 00:00N 52°34' E 005°55'0 0.0
2019-Apr-16 23:30N 52°34' E 005°55'0 0.0
2019-Apr-16 23:00N 52°34' E 005°55'0 0.0
2019-Apr-16 22:30N 52°34' E 005°55'0 0.0
2019-Apr-16 22:00N 52°34' E 005°55'0 0.0
2019-Apr-16 21:30N 52°34' E 005°55'0 0.0
2019-Apr-16 21:00N 52°34' E 005°55'0 0.0
2019-Apr-16 20:30N 52°34' E 005°55'0 0.0
2019-Apr-16 20:00N 52°34' E 005°55'0 0.0
2019-Apr-16 19:30N 52°34' E 005°55'0 0.0
2019-Apr-16 19:00N 52°34' E 005°55'0 0.0
2019-Apr-16 18:30N 52°34' E 005°55'0 0.0
2019-Apr-16 18:00N 52°34' E 005°55'0 0.0
2019-Apr-16 17:30N 52°34' E 005°55'0 0.0
2019-Apr-16 17:00N 52°34' E 005°55'0 0.0
2019-Apr-16 16:30N 52°34' E 005°55'0 0.0
2019-Apr-16 16:00N 52°34' E 005°55'0 0.0
2019-Apr-16 15:30N 52°34' E 005°55'0 0.0
2019-Apr-16 15:00N 52°34' E 005°55'0 0.0
2019-Apr-16 14:30N 52°34' E 005°55'0 0.0
2019-Apr-16 14:00N 52°34' E 005°55'0 0.0
2019-Apr-16 13:30N 52°34' E 005°55'0 0.0
2019-Apr-16 13:00N 52°34' E 005°55'0 0.0
2019-Apr-16 12:30N 52°34' E 005°55'0 0.0
2019-Apr-16 12:00N 52°34' E 005°55'0 0.0
2019-Apr-16 11:30N 52°34' E 005°55'0 0.0
2019-Apr-16 11:00N 52°34' E 005°55'0 0.0
2019-Apr-16 10:30N 52°34' E 005°55'0 0.0
2019-Apr-16 10:00N 52°34' E 005°55'0 0.0
2019-Apr-16 09:30N 52°34' E 005°55'0 0.0
2019-Apr-16 09:00N 52°34' E 005°55'0 0.0
2019-Apr-16 08:30N 52°34' E 005°55'0 0.0
2019-Apr-16 08:00N 52°34' E 005°55'0 0.0
2019-Apr-16 07:30N 52°34' E 005°55'0 0.0
2019-Apr-16 07:00N 52°34' E 005°55'0 0.0
2019-Apr-16 06:30N 52°34' E 005°55'0 0.0
2019-Apr-16 06:00N 52°34' E 005°55'0 0.0
2019-Apr-16 05:30N 52°34' E 005°55'0 0.0
2019-Apr-16 05:00N 52°34' E 005°55'0 0.0
2019-Apr-16 04:30N 52°34' E 005°55'0 0.0
2019-Apr-16 04:00N 52°34' E 005°55'0 0.0
2019-Apr-16 03:30N 52°34' E 005°55'0 0.0
2019-Apr-16 03:00N 52°34' E 005°55'0 0.0
2019-Apr-16 02:30N 52°34' E 005°55'0 0.0
2019-Apr-16 02:00N 52°34' E 005°55'0 0.0
2019-Apr-16 01:30N 52°34' E 005°55'0 0.0
2019-Apr-16 01:00N 52°34' E 005°55'0 0.0
2019-Apr-16 00:30N 52°34' E 005°55'0 0.0
2019-Apr-16 00:00N 52°34' E 005°55'0 0.0
2019-Apr-15 23:30N 52°34' E 005°55'0 0.0
2019-Apr-15 23:00N 52°34' E 005°55'0 0.0
2019-Apr-15 22:30N 52°34' E 005°55'0 0.0
2019-Apr-15 22:00N 52°34' E 005°55'0 0.0
2019-Apr-15 21:30N 52°34' E 005°55'0 0.0
2019-Apr-15 21:00N 52°34' E 005°55'0 0.0
2019-Apr-15 20:30N 52°34' E 005°55'0 0.0
2019-Apr-15 20:00N 52°34' E 005°55'0 0.0
2019-Apr-15 19:30N 52°34' E 005°55'0 0.0
2019-Apr-15 19:00N 52°34' E 005°55'0 0.0
2019-Apr-15 18:30N 52°34' E 005°55'0 0.0
2019-Apr-15 18:00N 52°34' E 005°55'0 0.0
2019-Apr-15 17:30N 52°34' E 005°55'0 0.0
2019-Apr-15 17:00N 52°34' E 005°55'0 0.0
2019-Apr-15 16:30N 52°34' E 005°55'0 0.0
2019-Apr-15 16:00N 52°34' E 005°55'0 0.0
2019-Apr-15 15:30N 52°34' E 005°55'0 0.0
2019-Apr-15 15:00N 52°34' E 005°55'0 0.0
2019-Apr-15 14:30N 52°34' E 005°55'0 0.0
2019-Apr-15 14:00N 52°34' E 005°55'0 0.0
2019-Apr-15 13:30N 52°34' E 005°55'0 0.0
2019-Apr-15 13:00N 52°34' E 005°55'0 0.0
2019-Apr-15 12:30N 52°34' E 005°55'0 0.0
2019-Apr-15 12:00N 52°34' E 005°55'  

Dump ship's entire track history